Time;durP1;ratioP1;P1;durP2;ratioP2;P2;SDS_P1;SDS_P2;PMS_P1;PMS_P2;Temp;Humidity;BMP_temperature;BMP_pressure;BME280_temperature;BME280_humidity;BME280_pressure;Samples;Min_cycle;Max_cycle;Signal;HPM_P1;HPM_P2
2023/12/08 00:00:48;;;;;;;12.23;8.80;;;;;;;0.55;100.00;151510.88;5030714;28;20730;-74
2023/12/08 00:03:15;;;;;;;13.27;8.27;;;;;;;0.56;100.00;151513.41;5051995;28;20461;-75
2023/12/08 00:05:41;;;;;;;11.30;8.70;;;;;;;0.56;100.00;151514.69;5050961;28;20461;-74
2023/12/08 00:08:09;;;;;;;10.63;8.30;;;;;;;0.57;100.00;151516.00;5052116;28;20454;-74
2023/12/08 00:10:36;;;;;;;13.20;8.90;;;;;;;0.57;100.00;151516.00;5047069;28;20838;-74
2023/12/08 00:13:02;;;;;;;12.87;8.90;;;;;;;0.58;100.00;151519.81;5050973;28;20449;-74
2023/12/08 00:15:29;;;;;;;13.20;8.70;;;;;;;0.61;100.00;151527.53;5049954;28;20847;-74
2023/12/08 00:17:56;;;;;;;13.20;9.40;;;;;;;0.63;100.00;151531.41;5049860;28;20434;-74
2023/12/08 00:20:25;;;;;;;11.90;8.20;;;;;;;0.58;100.00;151519.81;5047388;28;20457;-73
2023/12/08 00:22:52;;;;;;;10.47;7.97;;;;;;;0.54;100.00;151509.59;5048638;28;20455;-74
2023/12/08 00:25:20;;;;;;;13.93;9.80;;;;;;;0.55;100.00;151510.88;5049251;28;20447;-73
2023/12/08 00:27:46;;;;;;;13.40;9.60;;;;;;;0.52;100.00;151503.16;5049336;28;20557;-74
2023/12/08 00:30:13;;;;;;;14.60;9.30;;;;;;;0.54;100.00;151508.28;5046743;28;20988;-74
2023/12/08 00:32:40;;;;;;;14.00;9.17;;;;;;;0.52;100.00;151503.16;5050905;28;20451;-73
2023/12/08 00:35:08;;;;;;;16.57;9.90;;;;;;;0.53;100.00;151505.75;5058290;28;20478;-73
2023/12/08 00:37:35;;;;;;;14.30;9.60;;;;;;;0.52;100.00;151503.16;5047769;28;20451;-74
2023/12/08 00:40:05;;;;;;;14.90;10.10;;;;;;;0.54;100.00;151508.28;5052674;28;20449;-73
2023/12/08 00:42:33;;;;;;;13.03;9.20;;;;;;;0.62;100.00;151528.81;5080290;28;20431;-74
2023/12/08 00:44:59;;;;;;;14.00;9.93;;;;;;;0.57;100.00;151516.00;5049498;28;20451;-75
2023/12/08 00:47:25;;;;;;;12.37;8.90;;;;;;;0.54;100.00;151509.59;5047332;28;20458;-75
2023/12/08 00:49:51;;;;;;;10.17;7.10;;;;;;;0.60;100.00;151523.72;5050357;28;20516;-75
2023/12/08 00:52:18;;;;;;;17.57;9.90;;;;;;;0.58;100.00;151518.59;5063762;28;20209;-75
2023/12/08 00:54:45;;;;;;;12.77;9.33;;;;;;;0.51;100.00;151500.56;5048607;28;20549;-75
2023/12/08 00:57:11;;;;;;;13.00;9.40;;;;;;;0.49;100.00;151495.44;5037922;28;20843;-75
2023/12/08 00:59:39;;;;;;;11.37;7.80;;;;;;;0.52;100.00;151503.16;5051615;28;20455;-75
2023/12/08 01:02:05;;;;;;;15.73;9.40;;;;;;;0.58;100.00;151518.59;5061086;28;20448;-75
2023/12/08 01:04:32;;;;;;;13.17;8.20;;;;;;;0.61;100.00;151526.25;5048354;28;20492;-74
2023/12/08 01:06:58;;;;;;;12.70;9.43;;;;;;;0.63;100.00;151531.41;5050188;28;20447;-75
2023/12/08 01:09:26;;;;;;;13.10;9.70;;;;;;;0.61;100.00;151527.53;5049438;28;20455;-75
2023/12/08 01:11:53;;;;;;;12.90;8.70;;;;;;;0.60;100.00;151523.72;5031313;28;20478;-75
2023/12/08 01:14:19;;;;;;;12.00;8.77;;;;;;;0.61;100.00;151527.53;5047265;28;20458;-73
2023/12/08 01:16:47;;;;;;;15.97;9.50;;;;;;;0.70;100.00;151549.38;5079411;28;20443;-73
2023/12/08 01:19:13;;;;;;;14.37;9.77;;;;;;;0.66;100.00;151539.13;5048945;28;20500;-74
2023/12/08 01:21:41;;;;;;;15.50;9.67;;;;;;;0.67;100.00;151541.66;5050020;28;20498;-75
2023/12/08 01:24:08;;;;;;;13.30;9.90;;;;;;;0.63;100.00;151531.41;5049847;28;20461;-74
2023/12/08 01:26:34;;;;;;;14.80;10.10;;;;;;;0.64;100.00;151532.72;5047894;28;20876;-74
2023/12/08 01:29:01;;;;;;;15.33;9.00;;;;;;;0.59;100.00;151521.13;5046246;28;20462;-74
2023/12/08 01:31:27;;;;;;;14.87;9.97;;;;;;;0.58;100.00;151519.81;5047721;28;20459;-74
2023/12/08 01:33:55;;;;;;;14.00;9.40;;;;;;;0.61;100.00;151526.25;5042199;28;20432;-74
2023/12/08 01:36:22;;;;;;;12.50;8.30;;;;;;;0.65;100.00;151535.25;5053110;28;20478;-74
2023/12/08 01:38:48;;;;;;;14.10;9.60;;;;;;;0.64;100.00;151533.94;5044282;28;20450;-74
2023/12/08 01:41:15;;;;;;;13.90;9.07;;;;;;;0.65;100.00;151535.25;5049477;28;20486;-73
2023/12/08 01:43:41;;;;;;;15.77;10.80;;;;;;;0.63;100.00;151531.41;5047685;28;20462;-74
2023/12/08 01:46:09;;;;;;;13.00;9.10;;;;;;;0.65;100.00;151536.53;5048928;28;20439;-74
2023/12/08 01:48:35;;;;;;;14.67;9.30;;;;;;;0.62;100.00;151528.81;5045919;28;20520;-74
2023/12/08 01:51:03;;;;;;;15.70;8.77;;;;;;;0.60;100.00;151523.72;5047894;28;20488;-74
2023/12/08 01:53:29;;;;;;;15.77;9.37;;;;;;;0.60;100.00;151523.72;5039857;28;20858;-73
2023/12/08 01:55:56;;;;;;;11.07;8.60;;;;;;;0.56;100.00;151513.41;5048383;28;20455;-74
2023/12/08 01:58:23;;;;;;;11.47;9.17;;;;;;;0.57;100.00;151517.28;5048095;28;20470;-74
2023/12/08 02:00:50;;;;;;;10.60;8.10;;;;;;;0.62;100.00;151528.81;5053443;28;20805;-74
2023/12/08 02:03:17;;;;;;;11.10;9.07;;;;;;;0.63;100.00;151531.41;5051263;28;20467;-74
2023/12/08 02:05:48;;;;;;;10.70;8.20;;;;;;;0.65;100.00;151536.53;5026327;28;20468;-74
2023/12/08 02:08:17;;;;;;;12.50;8.20;;;;;;;0.64;100.00;151533.94;5047398;28;20435;-74
2023/12/08 02:10:44;;;;;;;15.40;8.83;;;;;;;0.64;100.00;151532.72;5032409;28;20494;-74
2023/12/08 02:13:11;;;;;;;11.50;8.37;;;;;;;0.67;100.00;151541.66;5030261;28;20443;-74
2023/12/08 02:15:38;;;;;;;13.33;8.80;;;;;;;0.67;100.00;151541.66;5027437;28;20459;-75
2023/12/08 02:18:05;;;;;;;10.83;8.30;;;;;;;0.67;100.00;151541.66;5048347;28;20526;-75
2023/12/08 02:20:32;;;;;;;10.80;8.00;;;;;;;0.71;100.00;151550.66;5049197;28;20443;-74
2023/12/08 02:22:59;;;;;;;9.17;7.77;;;;;;;0.76;100.00;151564.81;5044230;28;20968;-74
2023/12/08 02:25:27;;;;;;;9.03;6.83;;;;;;;0.80;100.00;151573.75;5046844;28;20983;-75
2023/12/08 02:27:54;;;;;;;10.23;7.37;;;;;;;0.81;100.00;151577.63;5049429;28;20453;-74
2023/12/08 02:30:20;;;;;;;11.90;8.53;;;;;;;0.79;100.00;151572.50;5048764;28;20903;-74
2023/12/08 02:32:53;;;;;;;10.40;7.03;;;;;;;0.79;100.00;151571.22;5045219;28;20920;-74
2023/12/08 02:35:21;;;;;;;12.27;7.50;;;;;;;0.78;100.00;151569.91;5047245;28;20483;-74
2023/12/08 02:37:48;;;;;;;9.80;7.20;;;;;;;0.76;100.00;151564.81;5049240;28;20443;-74
2023/12/08 02:40:15;;;;;;;9.03;6.83;;;;;;;0.75;100.00;151562.22;5048223;28;20484;-81
2023/12/08 02:42:43;;;;;;;10.60;7.57;;;;;;;0.73;100.00;151557.09;5028969;28;20891;-82
2023/12/08 02:45:10;;;;;;;9.13;5.97;;;;;;;0.75;100.00;151562.22;5048559;28;20500;-81
2023/12/08 02:47:36;;;;;;;7.77;5.67;;;;;;;0.80;100.00;151575.03;5046092;28;20974;-81
2023/12/08 02:50:04;;;;;;;7.10;5.30;;;;;;;0.84;100.00;151584.06;5046601;28;20459;-81
2023/12/08 02:52:30;;;;;;;8.63;6.10;;;;;;;0.85;100.00;151587.88;5042358;28;20566;-82
2023/12/08 02:54:57;;;;;;;8.10;6.30;;;;;;;0.86;100.00;151589.19;5045479;28;20463;-81
2023/12/08 02:57:23;;;;;;;8.27;5.47;;;;;;;0.86;100.00;151589.19;5047691;28;20538;-81
2023/12/08 02:59:52;;;;;;;8.73;5.70;;;;;;;0.86;100.00;151590.47;5045554;28;20520;-81
2023/12/08 03:02:18;;;;;;;8.87;6.10;;;;;;;0.86;100.00;151590.47;5048597;28;20492;-81
2023/12/08 03:04:45;;;;;;;7.47;5.87;;;;;;;0.85;100.00;151587.88;5048376;28;21012;-81
2023/12/08 03:07:12;;;;;;;9.67;6.67;;;;;;;0.88;100.00;151594.31;5047269;28;20443;-81
2023/12/08 03:09:38;;;;;;;8.17;5.50;;;;;;;0.89;100.00;151598.19;5043492;28;20450;-81
2023/12/08 03:12:05;;;;;;;6.20;5.17;;;;;;;0.90;100.00;151600.72;5045269;28;20478;-81
2023/12/08 03:14:32;;;;;;;9.00;6.00;;;;;;;0.89;100.00;151598.19;5060319;28;20444;-81
2023/12/08 03:17:00;;;;;;;9.87;6.63;;;;;;;0.89;100.00;151598.19;5047807;28;20455;-80
2023/12/08 03:19:26;;;;;;;6.67;4.80;;;;;;;0.89;100.00;151598.19;5044833;28;20859;-80
2023/12/08 03:21:53;;;;;;;7.30;5.93;;;;;;;0.90;100.00;151600.72;5048609;28;20466;-81
2023/12/08 03:24:19;;;;;;;9.87;5.97;;;;;;;0.89;100.00;151598.19;5051003;28;20801;-81
2023/12/08 03:26:46;;;;;;;7.57;5.20;;;;;;;0.88;100.00;151595.59;5047832;28;20520;-81
2023/12/08 03:29:15;;;;;;;7.00;5.07;;;;;;;0.89;100.00;151598.19;5035013;28;20446;-81
2023/12/08 03:31:42;;;;;;;8.60;5.90;;;;;;;0.90;100.00;151600.72;5053057;28;21210;-81
2023/12/08 03:34:10;;;;;;;8.20;5.60;;;;;;;0.93;100.00;151607.13;5050582;28;20452;-81
2023/12/08 03:36:36;;;;;;;8.10;6.20;;;;;;;0.91;100.00;151603.31;5045820;28;20481;-81
2023/12/08 03:39:03;;;;;;;9.43;5.83;;;;;;;0.90;100.00;151599.47;5051950;28;20454;-80
2023/12/08 03:41:29;;;;;;;7.47;5.80;;;;;;;0.92;100.00;151605.91;5034590;28;20828;-81
2023/12/08 03:43:56;;;;;;;8.70;5.60;;;;;;;0.92;100.00;151605.91;5051516;28;20446;-81
2023/12/08 03:46:23;;;;;;;9.47;6.70;;;;;;;0.92;100.00;151604.59;5047086;28;20461;-81
2023/12/08 03:48:57;;;;;;;8.47;6.00;;;;;;;0.91;100.00;151602.00;5052314;28;20443;-81
2023/12/08 03:51:25;;;;;;;8.93;6.10;;;;;;;0.92;100.00;151605.91;5051123;28;20548;-81
2023/12/08 03:53:51;;;;;;;8.70;6.10;;;;;;;0.94;100.00;151611.03;5048932;28;20447;-81
2023/12/08 03:56:18;;;;;;;7.90;6.10;;;;;;;0.91;100.00;151603.31;5034041;28;20442;-81
2023/12/08 03:58:44;;;;;;;9.27;7.10;;;;;;;0.93;100.00;151608.44;5033125;28;20439;-81
2023/12/08 04:01:16;;;;;;;9.57;6.90;;;;;;;0.93;100.00;151607.13;5052627;28;20458;-81
2023/12/08 04:03:43;;;;;;;9.90;7.13;;;;;;;0.94;100.00;151609.72;5034179;28;20482;-82
2023/12/08 04:06:09;;;;;;;10.23;7.10;;;;;;;0.91;100.00;151603.31;5042795;28;20458;-81
2023/12/08 04:08:37;;;;;;;9.23;6.63;;;;;;;0.91;100.00;151603.31;5032462;28;20782;-82
2023/12/08 04:11:05;;;;;;;9.03;6.90;;;;;;;0.91;100.00;151603.31;5042061;28;20459;-82
2023/12/08 04:13:32;;;;;;;10.20;6.83;;;;;;;0.92;100.00;151605.91;5058861;28;20797;-82
2023/12/08 04:15:58;;;;;;;9.07;6.07;;;;;;;0.93;100.00;151608.44;5052761;28;20442;-81
2023/12/08 04:18:25;;;;;;;10.00;7.17;;;;;;;0.93;100.00;151608.44;5047352;28;20449;-82
2023/12/08 04:20:51;;;;;;;10.23;6.67;;;;;;;0.98;100.00;151620.03;5060370;28;20465;-82
2023/12/08 04:23:18;;;;;;;10.67;7.40;;;;;;;0.98;100.00;151620.03;5052820;28;20442;-82
2023/12/08 04:25:46;;;;;;;8.10;6.40;;;;;;;0.98;100.00;151621.28;5051142;28;20545;-81
2023/12/08 04:28:12;;;;;;;8.90;6.77;;;;;;;0.99;100.00;151622.56;5051447;28;20767;-81
2023/12/08 04:30:39;;;;;;;10.00;7.20;;;;;;;0.99;100.00;151623.84;5047641;28;20460;-81
2023/12/08 04:33:05;;;;;;;9.07;6.47;;;;;;;0.98;100.00;151621.28;5050630;28;20563;-81
2023/12/08 04:35:32;;;;;;;10.70;7.00;;;;;;;1.00;100.00;151626.44;5038551;28;20527;-81
2023/12/08 04:37:58;;;;;;;8.83;6.50;;;;;;;1.03;100.00;151634.09;5049318;28;20442;-81
2023/12/08 04:40:25;;;;;;;8.30;6.20;;;;;;;1.05;100.00;151639.28;5047240;28;20470;-81
2023/12/08 04:42:53;;;;;;;8.67;6.10;;;;;;;1.08;100.00;151647.00;5051066;28;20439;-81
2023/12/08 04:45:19;;;;;;;8.57;5.10;;;;;;;1.13;100.00;151659.84;5051963;28;20494;-80
2023/12/08 04:47:46;;;;;;;9.20;5.97;;;;;;;1.20;100.00;151677.81;5048576;28;20943;-80
2023/12/08 04:50:12;;;;;;;6.53;5.10;;;;;;;1.21;100.00;151679.09;5049183;28;20801;-80
2023/12/08 04:52:39;;;;;;;8.77;5.80;;;;;;;1.22;100.00;151681.63;5049110;28;20517;-80
2023/12/08 04:55:06;;;;;;;9.20;5.97;;;;;;;1.24;100.00;151688.06;5048905;28;20875;-80
2023/12/08 04:57:32;;;;;;;8.47;6.10;;;;;;;1.26;100.00;151690.66;5044434;28;20447;-80
2023/12/08 05:00:01;;;;;;;8.57;6.13;;;;;;;1.25;100.00;151689.34;5050861;28;20795;-80
2023/12/08 05:02:27;;;;;;;8.73;6.03;;;;;;;1.24;100.00;151688.06;5049750;28;20578;-80
2023/12/08 05:04:54;;;;;;;8.77;6.07;;;;;;;1.26;100.00;151690.66;5048557;28;20451;-80
2023/12/08 05:07:20;;;;;;;7.63;5.90;;;;;;;1.25;100.00;151689.34;5044979;28;20459;-80
2023/12/08 05:09:47;;;;;;;8.37;6.50;;;;;;;1.26;100.00;151691.94;5050074;28;20451;-80
2023/12/08 05:12:13;;;;;;;8.10;6.60;;;;;;;1.26;100.00;151690.66;5048584;28;20478;-80
2023/12/08 05:14:40;;;;;;;8.90;6.93;;;;;;;1.26;100.00;151690.66;5049006;28;20451;-80
2023/12/08 05:17:08;;;;;;;7.80;6.60;;;;;;;1.24;100.00;151686.81;5048990;28;20486;-80
2023/12/08 05:19:34;;;;;;;8.27;5.80;;;;;;;1.24;100.00;151686.81;5048754;28;20456;-80
2023/12/08 05:22:03;;;;;;;9.60;5.90;;;;;;;1.26;100.00;151690.66;5042665;28;20464;-80
2023/12/08 05:24:29;;;;;;;7.43;5.77;;;;;;;1.28;100.00;151695.78;5063311;28;20871;-80
2023/12/08 05:26:56;;;;;;;7.83;6.10;;;;;;;1.31;100.00;151703.50;5048760;28;20454;-80
2023/12/08 05:29:22;;;;;;;9.47;6.90;;;;;;;1.33;100.00;151708.63;5060889;28;20451;-79
2023/12/08 05:31:49;;;;;;;11.13;7.40;;;;;;;1.38;100.00;151721.50;5043582;28;20576;-79
2023/12/08 05:34:17;;;;;;;9.93;7.90;;;;;;;1.35;100.00;151715.03;5046080;28;20458;-79
2023/12/08 05:36:43;;;;;;;8.33;6.90;;;;;;;1.31;100.00;151703.50;5043200;28;20474;-78
2023/12/08 05:39:10;;;;;;;10.47;7.37;;;;;;;1.30;100.00;151700.94;5048646;28;20487;-79
2023/12/08 05:41:36;;;;;;;10.10;8.13;;;;;;;1.29;100.00;151699.66;5047756;28;20548;-79
2023/12/08 05:44:03;;;;;;;14.80;8.40;;;;;;;1.26;100.00;151690.66;5036795;28;20462;-79
2023/12/08 05:46:30;;;;;;;10.17;8.43;;;;;;;1.23;100.00;151684.22;5046202;28;20443;-79
2023/12/08 05:48:56;;;;;;;11.40;8.63;;;;;;;1.22;100.00;151681.63;5050020;28;20951;-79
2023/12/08 05:51:24;;;;;;;12.70;9.70;;;;;;;1.16;100.00;151667.56;5048281;28;20454;-79
2023/12/08 05:53:51;;;;;;;15.20;9.30;;;;;;;1.11;100.00;151654.66;5054882;28;20435;-78
2023/12/08 05:56:17;;;;;;;12.20;9.70;;;;;;;1.09;100.00;151649.53;5044442;28;20980;-79
2023/12/08 05:58:44;;;;;;;10.30;8.30;;;;;;;1.09;100.00;151649.53;5047633;28;20497;-79
2023/12/08 06:01:13;;;;;;;13.83;9.17;;;;;;;1.11;100.00;151654.66;5048904;28;20447;-78
2023/12/08 06:03:39;;;;;;;10.43;7.90;;;;;;;1.10;100.00;151650.84;5040993;28;20453;-80
2023/12/08 06:06:06;;;;;;;10.90;8.37;;;;;;;1.12;100.00;151657.25;5035996;28;20470;-80
2023/12/08 06:08:34;;;;;;;12.10;8.33;;;;;;;1.15;100.00;151663.66;5040408;28;20462;-80
2023/12/08 06:11:02;;;;;;;10.57;8.23;;;;;;;1.14;100.00;151662.38;5036801;28;20542;-80
2023/12/08 06:13:28;;;;;;;11.87;9.17;;;;;;;1.14;100.00;151662.38;5052325;28;20482;-80
2023/12/08 06:15:55;;;;;;;14.40;8.97;;;;;;;1.15;100.00;151664.97;5036325;28;20468;-78
2023/12/08 06:18:22;;;;;;;10.93;8.90;;;;;;;1.19;100.00;151673.97;5039419;28;20581;-78
2023/12/08 06:20:49;;;;;;;9.67;8.07;;;;;;;1.18;100.00;151671.38;5036961;28;20813;-78
2023/12/08 06:23:15;;;;;;;9.83;8.50;;;;;;;1.20;100.00;151677.81;5036368;28;20466;-79
2023/12/08 06:25:43;;;;;;;13.33;9.30;;;;;;;1.19;100.00;151675.22;5038387;28;20454;-79
2023/12/08 06:28:10;;;;;;;13.73;9.33;;;;;;;1.21;100.00;151680.41;5053827;28;20809;-78
2023/12/08 06:30:36;;;;;;;11.97;9.13;;;;;;;1.23;100.00;151684.22;5036550;28;20475;-79
2023/12/08 06:33:03;;;;;;;12.77;10.10;;;;;;;1.22;100.00;151682.94;5039722;28;20482;-79
2023/12/08 06:35:29;;;;;;;10.13;8.57;;;;;;;1.22;100.00;151682.94;5037223;28;20486;-79
2023/12/08 06:37:56;;;;;;;13.80;10.37;;;;;;;1.22;100.00;151681.63;5014445;28;21029;-79
2023/12/08 06:40:23;;;;;;;13.43;10.23;;;;;;;1.21;100.00;151680.41;5035901;28;20544;-79
2023/12/08 06:42:50;;;;;;;13.33;10.20;;;;;;;1.18;100.00;151671.38;5042249;28;21043;-79
2023/12/08 06:45:17;;;;;;;13.73;9.63;;;;;;;1.16;100.00;151667.56;5033188;28;20458;-79
2023/12/08 06:47:43;;;;;;;15.20;9.83;;;;;;;1.16;100.00;151666.25;5034845;28;21043;-78
2023/12/08 06:50:10;;;;;;;13.00;10.20;;;;;;;1.14;100.00;151662.38;5041442;28;20470;-79
2023/12/08 06:52:37;;;;;;;12.50;10.13;;;;;;;1.15;100.00;151663.66;5038643;28;20505;-79
2023/12/08 06:55:07;;;;;;;12.27;9.87;;;;;;;1.15;100.00;151663.66;5033351;28;20508;-79
2023/12/08 06:57:34;;;;;;;12.40;9.20;;;;;;;1.16;100.00;151666.25;5020930;28;20446;-79
2023/12/08 07:00:10;;;;;;;13.00;9.13;;;;;;;1.16;100.00;151667.56;5036802;28;20469;-79
2023/12/08 07:02:36;;;;;;;14.20;10.83;;;;;;;1.18;100.00;151671.38;5038328;28;20453;-79
2023/12/08 07:05:07;;;;;;;15.30;10.43;;;;;;;1.19;100.00;151675.22;5019837;28;20458;-79
2023/12/08 07:07:33;;;;;;;14.37;9.80;;;;;;;1.20;100.00;151677.81;5040591;28;20447;-79
2023/12/08 07:10:00;;;;;;;13.20;9.50;;;;;;;1.22;100.00;151682.94;5021168;28;20463;-79
2023/12/08 07:12:26;;;;;;;13.00;9.57;;;;;;;1.22;100.00;151682.94;5034317;28;20525;-79
2023/12/08 07:15:03;;;;;;;16.37;10.80;;;;;;;1.22;100.00;151682.94;5038581;28;21661;-79
2023/12/08 07:17:30;;;;;;;11.40;10.10;;;;;;;1.22;100.00;151681.63;5026555;28;20525;-79
2023/12/08 07:19:56;;;;;;;16.03;10.97;;;;;;;1.22;100.00;151681.63;5024786;28;20466;-79
2023/12/08 07:22:25;;;;;;;13.40;10.60;;;;;;;1.21;100.00;151680.41;5038070;28;20443;-79
2023/12/08 07:24:51;;;;;;;13.40;10.33;;;;;;;1.23;100.00;151685.53;5041489;28;20511;-79
2023/12/08 07:27:18;;;;;;;12.47;9.33;;;;;;;1.23;100.00;151685.53;5025354;28;20462;-79
2023/12/08 07:29:44;;;;;;;12.43;9.80;;;;;;;1.24;100.00;151688.06;5039716;28;20462;-79
2023/12/08 07:32:12;;;;;;;13.73;9.30;;;;;;;1.26;100.00;151691.94;5017051;28;20459;-79
2023/12/08 07:34:39;;;;;;;14.50;10.77;;;;;;;1.27;100.00;151693.22;5035725;28;21027;-79
2023/12/08 07:37:05;;;;;;;13.13;10.60;;;;;;;1.29;100.00;151698.38;5037225;28;20463;-79
2023/12/08 07:39:32;;;;;;;14.30;10.50;;;;;;;1.30;100.00;151700.94;5018469;28;20466;-79
2023/12/08 07:41:58;;;;;;;18.80;10.90;;;;;;;1.30;100.00;151700.94;5019050;28;20475;-79
2023/12/08 07:44:25;;;;;;;14.70;10.00;;;;;;;1.30;100.00;151700.94;5038542;28;20460;-79
2023/12/08 07:46:52;;;;;;;13.73;10.43;;;;;;;1.32;100.00;151706.06;5005511;28;20453;-79
2023/12/08 07:49:20;;;;;;;10.57;9.47;;;;;;;1.35;100.00;151713.78;5038058;28;20479;-79
2023/12/08 07:51:46;;;;;;;12.10;8.80;;;;;;;1.38;100.00;151721.50;5037184;28;20892;-80
2023/12/08 07:54:13;;;;;;;14.10;9.30;;;;;;;1.42;100.00;151731.75;5016883;28;20483;-79
2023/12/08 07:56:39;;;;;;;11.60;8.63;;;;;;;1.46;100.00;151742.00;5037541;28;20520;-80
2023/12/08 07:59:07;;;;;;;13.30;8.40;;;;;;;1.50;100.00;151752.31;5036669;28;20467;-79
2023/12/08 08:01:35;;;;;;;13.83;8.20;;;;;;;1.52;100.00;151757.44;5023640;28;20537;-79
2023/12/08 08:04:01;;;;;;;11.40;8.30;;;;;;;1.52;100.00;151757.44;5020132;28;20893;-79
2023/12/08 08:06:29;;;;;;;12.03;7.83;;;;;;;1.54;100.00;151763.88;5040284;28;20496;-79
2023/12/08 08:08:56;;;;;;;12.20;8.97;;;;;;;1.58;100.00;151772.88;5037652;28;20459;-75
2023/12/08 08:11:22;;;;;;;12.80;9.40;;;;;;;1.60;100.00;151778.00;5035962;28;20455;-75
2023/12/08 08:13:49;;;;;;;10.07;7.80;;;;;;;1.64;100.00;151788.31;5037180;28;20537;-75
2023/12/08 08:16:15;;;;;;;10.67;8.70;;;;;;;1.63;100.00;151787.03;5039671;28;20459;-75
2023/12/08 08:18:42;;;;;;;11.50;8.30;;;;;;;1.66;100.00;151793.44;5039929;28;20451;-75
2023/12/08 08:21:08;;;;;;;11.80;8.60;;;;;;;1.68;100.00;151798.56;5040572;28;20447;-75
2023/12/08 08:23:36;;;;;;;10.90;8.47;;;;;;;1.73;100.00;151811.41;5035421;28;20442;-76
2023/12/08 08:26:04;;;;;;;10.20;8.20;;;;;;;1.74;100.00;151814.00;5021784;28;20457;-76
2023/12/08 08:28:30;;;;;;;13.90;9.43;;;;;;;1.76;100.00;151820.44;5041886;28;20857;-76
2023/12/08 08:30:57;;;;;;;12.57;8.67;;;;;;;1.82;100.00;151834.56;5041977;28;20470;-76
2023/12/08 08:33:23;;;;;;;10.97;8.77;;;;;;;1.85;100.00;151842.28;5023912;28;20478;-76
2023/12/08 08:35:49;;;;;;;11.50;8.90;;;;;;;1.87;100.00;151846.13;5025196;28;20479;-76
2023/12/08 08:38:16;;;;;;;13.93;9.07;;;;;;;1.88;100.00;151849.97;5033450;28;20447;-76
2023/12/08 08:40:44;;;;;;;13.90;9.10;;;;;;;1.88;100.00;151848.72;5015337;28;20218;-76
2023/12/08 08:43:10;;;;;;;14.30;9.30;;;;;;;1.88;100.00;151849.97;5018683;28;20444;-76
2023/12/08 08:45:40;;;;;;;13.53;8.30;;;;;;;1.92;100.00;151858.97;5033893;28;20464;-76
2023/12/08 08:48:07;;;;;;;12.93;8.10;;;;;;;1.90;100.00;151855.16;5018000;28;20467;-76
2023/12/08 08:50:33;;;;;;;12.77;8.70;;;;;;;1.90;100.00;151855.16;5020075;28;20455;-76
2023/12/08 08:53:00;;;;;;;12.67;8.70;;;;;;;1.92;100.00;151858.97;5018200;28;20479;-76
2023/12/08 08:55:27;;;;;;;11.33;8.53;;;;;;;1.96;100.00;151870.53;5034787;28;20445;-76
2023/12/08 08:57:55;;;;;;;13.93;9.27;;;;;;;1.96;100.00;151870.53;5018950;28;20460;-76
2023/12/08 09:00:25;;;;;;;15.13;9.70;;;;;;;1.98;100.00;151875.72;5016429;28;20476;-76
2023/12/08 09:02:52;;;;;;;11.23;8.53;;;;;;;2.00;100.00;151880.84;5017288;28;20502;-76
2023/12/08 09:05:18;;;;;;;11.67;8.83;;;;;;;2.03;100.00;151887.25;5019359;28;20486;-76
2023/12/08 09:07:45;;;;;;;11.90;9.30;;;;;;;2.01;100.00;151882.13;5034230;28;20464;-76
2023/12/08 09:10:12;;;;;;;14.63;9.37;;;;;;;2.03;100.00;151887.25;5031910;28;20887;-76
2023/12/08 09:12:38;;;;;;;15.90;9.50;;;;;;;2.01;100.00;151883.44;5051670;28;20448;-76
2023/12/08 09:15:08;;;;;;;13.67;8.90;;;;;;;2.00;100.00;151880.84;5033291;28;20474;-76
2023/12/08 09:17:34;;;;;;;13.00;8.43;;;;;;;2.01;100.00;151883.44;5018800;28;20824;-81
2023/12/08 09:20:02;;;;;;;13.30;9.93;;;;;;;2.05;100.00;151892.41;5019163;28;20464;-81
2023/12/08 09:22:29;;;;;;;14.73;9.53;;;;;;;2.07;100.00;151897.53;5013503;28;20575;-81
2023/12/08 09:24:55;;;;;;;11.20;8.90;;;;;;;2.10;100.00;151905.25;5012283;28;20468;-81
2023/12/08 09:27:22;;;;;;;10.07;8.20;;;;;;;2.17;100.00;151924.53;5054072;28;20453;-81
2023/12/08 09:29:48;;;;;;;15.40;9.47;;;;;;;2.22;100.00;151937.44;5039049;28;20468;-82
2023/12/08 09:32:16;;;;;;;11.07;8.83;;;;;;;2.27;100.00;151948.97;5015871;28;20542;-81
2023/12/08 09:34:42;;;;;;;12.40;9.50;;;;;;;2.33;100.00;151965.66;5018177;28;20498;-81
2023/12/08 09:37:09;;;;;;;10.93;8.13;;;;;;;2.39;100.00;151981.13;5036951;28;20788;-81
2023/12/08 09:39:35;;;;;;;9.60;7.53;;;;;;;2.45;100.00;151996.56;5017286;28;20822;-82
2023/12/08 09:42:07;;;;;;;14.27;8.00;;;;;;;2.49;100.00;152004.28;5036855;28;20486;-82
2023/12/08 09:44:34;;;;;;;10.60;6.80;;;;;;;2.50;100.00;152008.13;5038003;28;20444;-82
2023/12/08 09:47:03;;;;;;;12.13;7.30;;;;;;;2.55;100.00;152019.69;5019066;28;20447;-82
2023/12/08 09:49:36;;;;;;;14.53;7.33;;;;;;;2.60;100.00;152032.53;5019244;28;20486;-82
2023/12/08 09:52:03;;;;;;;8.30;6.07;;;;;;;2.64;100.00;152042.84;5044499;28;20500;-82
2023/12/08 09:54:30;;;;;;;8.20;5.93;;;;;;;2.65;100.00;152045.44;5046070;28;20490;-82
2023/12/08 09:56:58;;;;;;;8.70;6.40;;;;;;;2.69;100.00;152055.72;5042327;28;20459;-82
2023/12/08 09:59:28;;;;;;;8.60;6.80;;;;;;;2.76;100.00;152073.72;5034622;28;20451;-82
2023/12/08 10:01:56;;;;;;;10.20;6.83;;;;;;;2.83;100.00;152093.00;5040038;28;20535;-82
2023/12/08 10:04:23;;;;;;;7.40;5.70;;;;;;;2.87;100.00;152102.00;5039048;28;20502;-82
2023/12/08 10:06:51;;;;;;;9.80;7.77;;;;;;;2.88;100.00;152104.59;5035694;28;20449;-82
2023/12/08 10:09:18;;;;;;;10.57;7.60;;;;;;;2.86;100.00;152099.47;5035085;28;20465;-82
2023/12/08 10:11:44;;;;;;;8.30;6.17;;;;;;;2.85;100.00;152096.88;5037779;28;20825;-82
2023/12/08 10:14:12;;;;;;;9.53;6.67;;;;;;;2.86;100.00;152099.47;5019180;28;20651;-82
2023/12/08 10:16:39;;;;;;;9.50;5.83;;;;;;;2.89;100.00;152108.44;5037244;28;20455;-82
2023/12/08 10:19:06;;;;;;;8.07;6.77;;;;;;;2.90;100.00;152109.75;5037075;28;20520;-82
2023/12/08 10:21:33;;;;;;;8.27;6.67;;;;;;;2.88;100.00;152104.59;5034620;28;21334;-82
2023/12/08 10:24:02;;;;;;;8.90;6.40;;;;;;;2.93;100.00;152118.75;5037890;28;20454;-82
2023/12/08 10:26:29;;;;;;;11.80;6.50;;;;;;;2.97;100.00;152129.03;5054989;28;20442;-82
2023/12/08 10:28:56;;;;;;;7.70;6.17;;;;;;;2.93;100.00;152118.75;5036744;28;20466;-82
2023/12/08 10:31:23;;;;;;;9.40;7.13;;;;;;;2.94;100.00;152120.00;5017834;28;20451;-82
2023/12/08 10:33:49;;;;;;;9.93;6.83;;;;;;;2.96;100.00;152125.19;5036456;28;20476;-82
2023/12/08 10:36:16;;;;;;;10.43;6.30;;;;;;;2.98;100.00;152131.63;5029508;28;20474;-82
2023/12/08 10:38:43;;;;;;;9.00;6.47;;;;;;;2.95;100.00;152122.59;5034250;28;20454;-82
2023/12/08 10:41:11;;;;;;;8.67;6.97;;;;;;;2.91;100.00;152112.34;5037537;28;20509;-82
2023/12/08 10:43:39;;;;;;;8.90;7.50;;;;;;;2.88;100.00;152105.91;5017769;28;20474;-82
2023/12/08 10:46:06;;;;;;;9.83;8.07;;;;;;;2.89;100.00;152107.16;5036458;28;20991;-82
2023/12/08 10:48:34;;;;;;;9.03;6.20;;;;;;;2.93;100.00;152118.75;5036699;28;20501;-82
2023/12/08 10:51:01;;;;;;;11.27;8.17;;;;;;;2.93;100.00;152118.75;5051103;28;20458;-82
2023/12/08 10:53:28;;;;;;;10.30;7.83;;;;;;;2.96;100.00;152125.19;5034929;28;20553;-82
2023/12/08 10:56:01;;;;;;;10.57;8.00;;;;;;;2.98;100.00;152130.31;5033725;28;20475;-82
2023/12/08 10:58:29;;;;;;;12.17;9.27;;;;;;;3.01;100.00;152138.06;5035791;28;20455;-82
2023/12/08 11:00:57;;;;;;;11.50;9.27;;;;;;;3.06;100.00;152150.91;5034792;28;20493;-82
2023/12/08 11:03:25;;;;;;;14.90;9.17;;;;;;;3.09;100.00;152158.66;5034504;28;20795;-82
2023/12/08 11:05:58;;;;;;;14.23;11.60;;;;;;;3.16;100.00;152176.66;5035130;28;20541;-82
2023/12/08 11:08:26;;;;;;;11.30;9.47;;;;;;;3.16;100.00;152176.66;5036113;28;20466;-82
2023/12/08 11:10:54;;;;;;;14.30;10.70;;;;;;;3.12;100.00;152165.06;5034493;28;20447;-82
2023/12/08 11:13:26;;;;;;;13.73;10.30;;;;;;;3.07;100.00;152153.50;5036331;28;20451;-82
2023/12/08 11:16:05;;;;;;;14.93;10.13;;;;;;;3.01;100.00;152138.06;5034344;28;20554;-81
2023/12/08 11:18:35;;;;;;;16.53;11.87;;;;;;;3.04;100.00;152145.78;5036849;28;20447;-82